Time;durP1;ratioP1;P1;durP2;ratioP2;P2;SDS_P1;SDS_P2;PMS_P1;PMS_P2;Temp;Humidity;BMP_temperature;BMP_pressure;BME280_temperature;BME280_humidity;BME280_pressure;Samples;Min_cycle;Max_cycle;Signal;HPM_P1;HPM_P2
2021/10/10 00:00:19;;;;;;;14.07;11.35;;;5.10;84.90;;;;;;5014659;29;20073;-68
2021/10/10 00:02:51;;;;;;;13.13;10.88;;;5.10;84.40;;;;;;5014180;29;20206;-68
2021/10/10 00:05:23;;;;;;;12.93;10.50;;;5.10;84.10;;;;;;5015280;29;20071;-68
2021/10/10 00:07:55;;;;;;;11.55;10.30;;;5.10;84.00;;;;;;5016005;29;20505;-68
2021/10/10 00:10:27;;;;;;;12.32;11.02;;;5.10;84.20;;;;;;5018794;29;20060;-67
2021/10/10 00:12:59;;;;;;;12.85;10.98;;;5.10;84.10;;;;;;5019321;29;20523;-67
2021/10/10 00:15:32;;;;;;;13.45;11.15;;;5.10;84.50;;;;;;5019505;29;20239;-68
2021/10/10 00:18:03;;;;;;;11.98;10.77;;;5.10;84.60;;;;;;5018951;29;20128;-67
2021/10/10 00:20:35;;;;;;;12.88;10.65;;;5.00;84.60;;;;;;5019757;29;20136;-68
2021/10/10 00:23:07;;;;;;;11.48;10.27;;;5.00;84.70;;;;;;5019699;29;20074;-68
2021/10/10 00:25:40;;;;;;;12.05;10.27;;;4.90;84.70;;;;;;5018408;29;20988;-67
2021/10/10 00:28:12;;;;;;;15.93;11.40;;;4.80;85.40;;;;;;5018225;29;20041;-68
2021/10/10 00:30:44;;;;;;;12.93;11.18;;;4.80;85.40;;;;;;5019326;29;20583;-68
2021/10/10 00:33:16;;;;;;;12.82;11.20;;;4.70;85.60;;;;;;5020945;29;20152;-68
2021/10/10 00:35:48;;;;;;;12.77;10.70;;;4.70;85.90;;;;;;5018386;29;20431;-68
2021/10/10 00:38:20;;;;;;;13.13;11.63;;;4.80;85.80;;;;;;5016732;29;20059;-68
2021/10/10 00:40:52;;;;;;;12.82;10.60;;;4.70;85.70;;;;;;5018902;29;20532;-67
2021/10/10 00:43:24;;;;;;;11.32;10.05;;;4.70;85.50;;;;;;5019508;29;21101;-67
2021/10/10 00:45:56;;;;;;;12.35;10.27;;;4.60;85.30;;;;;;5016671;29;20503;-68
2021/10/10 00:48:29;;;;;;;12.50;10.30;;;4.70;85.50;;;;;;5018662;29;20892;-67
2021/10/10 00:51:01;;;;;;;12.20;10.52;;;4.60;85.40;;;;;;5000510;29;20205;-68
2021/10/10 00:53:36;;;;;;;11.95;10.63;;;4.70;85.00;;;;;;5019549;29;20057;-68
2021/10/10 00:56:10;;;;;;;11.50;10.30;;;4.70;84.60;;;;;;5018374;29;20135;-68
2021/10/10 00:58:43;;;;;;;12.13;10.82;;;4.70;84.00;;;;;;5019688;29;20057;-67
2021/10/10 01:01:16;;;;;;;11.70;10.50;;;4.70;83.70;;;;;;5018880;29;20179;-68
2021/10/10 01:03:48;;;;;;;14.48;11.23;;;4.80;83.50;;;;;;5002633;29;20037;-69
2021/10/10 01:06:21;;;;;;;14.25;10.93;;;4.70;84.90;;;;;;5018277;29;20061;-68
2021/10/10 01:08:53;;;;;;;11.43;10.23;;;4.70;85.10;;;;;;5018682;29;20045;-68
2021/10/10 01:11:27;;;;;;;12.23;10.45;;;4.60;85.10;;;;;;5018209;29;20479;-68
2021/10/10 01:13:59;;;;;;;11.50;10.27;;;4.60;85.30;;;;;;5018303;29;20471;-68
2021/10/10 01:16:30;;;;;;;12.65;10.32;;;4.50;85.40;;;;;;5017300;29;20132;-69
2021/10/10 01:19:03;;;;;;;14.68;10.73;;;4.40;85.50;;;;;;5016811;29;20053;-68
2021/10/10 01:21:35;;;;;;;13.75;11.60;;;4.50;85.20;;;;;;5019010;29;20556;-71
2021/10/10 01:24:07;;;;;;;12.48;11.18;;;4.50;84.90;;;;;;5017439;29;20133;-69
2021/10/10 01:26:40;;;;;;;12.15;10.85;;;4.40;84.40;;;;;;5016713;29;20124;-69
2021/10/10 01:29:12;;;;;;;13.80;11.25;;;4.40;84.00;;;;;;5019498;29;20102;-67
2021/10/10 01:31:43;;;;;;;12.05;10.13;;;4.40;83.80;;;;;;5017545;29;20125;-68
2021/10/10 01:34:15;;;;;;;11.68;10.48;;;4.40;83.60;;;;;;5018360;29;20057;-67
2021/10/10 01:36:47;;;;;;;12.35;10.40;;;4.50;83.30;;;;;;5018188;29;20166;-68
2021/10/10 01:39:19;;;;;;;12.48;10.98;;;4.40;83.10;;;;;;5020073;29;20053;-70
2021/10/10 01:41:51;;;;;;;12.07;10.45;;;4.40;83.10;;;;;;5017097;29;20053;-68
2021/10/10 01:44:23;;;;;;;12.68;10.45;;;4.40;82.90;;;;;;5019430;29;20133;-68
2021/10/10 01:46:55;;;;;;;11.38;10.07;;;4.40;83.00;;;;;;5016664;29;20110;-69
2021/10/10 01:49:27;;;;;;;11.05;9.95;;;4.40;84.10;;;;;;5018018;29;20827;-69
2021/10/10 01:52:00;;;;;;;13.02;11.05;;;4.40;83.60;;;;;;5016670;29;20501;-69
2021/10/10 01:54:32;;;;;;;12.45;10.65;;;4.30;83.90;;;;;;5018793;29;20080;-69
2021/10/10 01:57:04;;;;;;;12.60;10.65;;;4.20;83.80;;;;;;5015007;29;20045;-69
2021/10/10 01:59:36;;;;;;;14.07;10.57;;;4.10;84.00;;;;;;5017420;29;20097;-69
2021/10/10 02:02:07;;;;;;;11.80;10.40;;;4.10;83.80;;;;;;5016662;29;20419;-69
2021/10/10 02:04:40;;;;;;;13.13;11.13;;;4.10;83.60;;;;;;5017287;29;20060;-68
2021/10/10 02:07:13;;;;;;;13.23;10.68;;;4.20;84.00;;;;;;5000945;29;20607;-70
2021/10/10 02:09:45;;;;;;;12.18;10.65;;;4.20;83.40;;;;;;5015596;29;20041;-69
2021/10/10 02:12:17;;;;;;;11.40;10.20;;;4.20;83.10;;;;;;5016674;29;20049;-69
2021/10/10 02:14:49;;;;;;;12.40;11.10;;;4.20;83.30;;;;;;5017679;29;20077;-69
2021/10/10 02:17:21;;;;;;;11.98;10.65;;;4.20;83.50;;;;;;5016807;29;20133;-69
2021/10/10 02:19:53;;;;;;;11.70;10.50;;;4.20;83.30;;;;;;5018102;29;20052;-69
2021/10/10 02:22:27;;;;;;;11.90;10.20;;;4.20;83.80;;;;;;5017138;29;20062;-69
2021/10/10 02:24:59;;;;;;;11.32;10.02;;;4.20;83.30;;;;;;5016852;29;20056;-69
2021/10/10 02:27:31;;;;;;;11.43;10.23;;;4.20;82.70;;;;;;5015687;29;20665;-70
2021/10/10 02:30:04;;;;;;;13.77;10.20;;;4.10;82.70;;;;;;5016479;29;20102;-69
2021/10/10 02:32:36;;;;;;;11.48;10.27;;;4.10;83.80;;;;;;5016638;29;20096;-69
2021/10/10 02:35:08;;;;;;;13.25;11.70;;;4.10;83.30;;;;;;5016762;29;20092;-69
2021/10/10 02:37:40;;;;;;;29.65;11.90;;;4.10;83.30;;;;;;5016585;29;20076;-68
2021/10/10 02:40:13;;;;;;;13.00;11.60;;;4.20;83.60;;;;;;5015968;29;20053;-68
2021/10/10 02:42:45;;;;;;;18.50;12.32;;;4.10;84.20;;;;;;5017409;29;20515;-68
2021/10/10 02:45:17;;;;;;;12.73;11.35;;;4.10;84.20;;;;;;5015944;29;20646;-68
2021/10/10 02:47:49;;;;;;;13.32;11.85;;;4.10;83.90;;;;;;5016981;29;20073;-68
2021/10/10 02:50:22;;;;;;;12.95;11.20;;;4.10;83.60;;;;;;5016982;29;20047;-68
2021/10/10 02:52:55;;;;;;;12.30;11.10;;;4.20;83.70;;;;;;5017477;29;20053;-67
2021/10/10 02:55:27;;;;;;;12.63;10.88;;;4.10;84.00;;;;;;5016396;29;21101;-68
2021/10/10 02:57:59;;;;;;;11.43;10.23;;;4.20;83.80;;;;;;5016870;29;20069;-68
2021/10/10 03:00:31;;;;;;;13.50;11.00;;;4.20;84.00;;;;;;5016602;29;20728;-68
2021/10/10 03:03:04;;;;;;;12.63;10.35;;;4.20;83.70;;;;;;5017119;29;20041;-70
2021/10/10 03:05:37;;;;;;;12.18;10.88;;;4.20;83.80;;;;;;5016804;29;20226;-68
2021/10/10 03:08:08;;;;;;;11.60;10.40;;;4.20;84.50;;;;;;5016171;29;20363;-69
2021/10/10 03:10:40;;;;;;;11.10;9.90;;;4.20;84.20;;;;;;5014752;29;20370;-68
2021/10/10 03:13:12;;;;;;;11.35;10.23;;;4.20;83.90;;;;;;5017021;29;20124;-68
2021/10/10 03:15:44;;;;;;;11.15;10.00;;;4.20;84.10;;;;;;5014868;29;20136;-68
2021/10/10 03:18:16;;;;;;;12.20;10.48;;;4.20;83.90;;;;;;5017348;29;20141;-69
2021/10/10 03:20:48;;;;;;;11.18;10.00;;;4.20;84.60;;;;;;5014885;29;20081;-68
2021/10/10 03:23:20;;;;;;;11.88;10.68;;;4.10;84.60;;;;;;5015342;29;20146;-70
2021/10/10 03:25:52;;;;;;;11.50;10.30;;;4.20;84.40;;;;;;5014766;29;20161;-68
2021/10/10 03:28:24;;;;;;;12.05;10.75;;;4.20;84.30;;;;;;5016263;29;20045;-69
2021/10/10 03:30:55;;;;;;;11.13;9.77;;;4.20;84.80;;;;;;5015476;29;20053;-67
2021/10/10 03:33:28;;;;;;;11.68;10.48;;;4.20;85.00;;;;;;5015630;29;20140;-68
2021/10/10 03:36:00;;;;;;;11.25;10.05;;;4.20;85.30;;;;;;5016057;29;20490;-69
2021/10/10 03:38:32;;;;;;;12.50;11.07;;;4.30;85.00;;;;;;5016913;29;20398;-69
2021/10/10 03:41:04;;;;;;;15.27;12.25;;;4.30;85.00;;;;;;5015629;29;20704;-69
2021/10/10 03:43:36;;;;;;;16.13;12.52;;;4.30;85.30;;;;;;5018022;29;20883;-70
2021/10/10 03:46:08;;;;;;;14.02;11.98;;;4.30;84.70;;;;;;5019716;29;20069;-69
2021/10/10 03:48:40;;;;;;;13.52;11.73;;;4.30;84.60;;;;;;5020236;29;20050;-69
2021/10/10 03:51:11;;;;;;;13.23;11.82;;;4.30;84.30;;;;;;5020129;29;20512;-70
2021/10/10 03:56:35;;;;;;;12.63;11.23;;;4.30;84.60;;;;;;4999376;29;20041;-68
2021/10/10 03:59:07;;;;;;;11.95;10.65;;;4.30;84.90;;;;;;5020211;29;20093;-69
2021/10/10 04:01:41;;;;;;;13.20;11.30;;;4.40;85.00;;;;;;5018013;29;20045;-68
2021/10/10 04:04:13;;;;;;;15.93;11.23;;;4.40;85.20;;;;;;5019856;29;20061;-68
2021/10/10 04:06:45;;;;;;;14.40;11.50;;;4.40;85.20;;;;;;5017842;29;20052;-68
2021/10/10 04:09:16;;;;;;;19.98;12.38;;;4.40;85.40;;;;;;5019098;29;20041;-68
2021/10/10 04:11:48;;;;;;;13.10;11.70;;;4.30;85.40;;;;;;5019082;29;20185;-70
2021/10/10 04:14:20;;;;;;;18.17;12.02;;;4.40;85.20;;;;;;5002926;29;20650;-70
2021/10/10 04:16:52;;;;;;;13.32;11.23;;;4.40;85.40;;;;;;5017877;29;20064;-68
2021/10/10 04:19:24;;;;;;;13.23;11.63;;;4.40;85.30;;;;;;5020120;29;20045;-70
2021/10/10 04:21:56;;;;;;;13.30;11.30;;;4.40;86.00;;;;;;5018441;29;20083;-68
2021/10/10 04:24:28;;;;;;;18.88;12.43;;;4.40;85.50;;;;;;5019461;29;20049;-69
2021/10/10 04:27:00;;;;;;;14.68;11.80;;;4.40;85.90;;;;;;5016631;29;20050;-68
2021/10/10 04:29:32;;;;;;;15.90;12.25;;;4.30;86.10;;;;;;5019436;29;20124;-69
2021/10/10 04:32:04;;;;;;;14.25;12.57;;;4.40;86.30;;;;;;5018801;29;20075;-69
2021/10/10 04:34:36;;;;;;;16.98;12.30;;;4.40;86.60;;;;;;5019016;29;20057;-68
2021/10/10 04:37:08;;;;;;;17.48;11.90;;;4.40;87.20;;;;;;5018701;29;20766;-68
2021/10/10 04:39:39;;;;;;;13.20;11.55;;;4.40;86.80;;;;;;5018012;29;20136;-67
2021/10/10 04:42:11;;;;;;;16.88;11.88;;;4.40;86.10;;;;;;5019947;29;20582;-68
2021/10/10 04:44:43;;;;;;;18.60;12.50;;;4.40;86.30;;;;;;5019125;29;20128;-69
2021/10/10 04:47:15;;;;;;;14.05;11.98;;;4.40;86.00;;;;;;5017582;29;20049;-67
2021/10/10 04:49:47;;;;;;;31.50;13.35;;;4.30;86.30;;;;;;5019072;29;20138;-67
2021/10/10 04:52:19;;;;;;;13.80;11.70;;;4.30;86.70;;;;;;5018926;29;20587;-67
2021/10/10 04:54:51;;;;;;;20.08;11.40;;;4.30;86.20;;;;;;5002133;29;20041;-68
2021/10/10 04:57:23;;;;;;;14.50;11.45;;;4.30;86.70;;;;;;5019051;29;20491;-68
2021/10/10 04:59:55;;;;;;;18.52;11.63;;;4.30;86.60;;;;;;5017258;29;20050;-69
2021/10/10 05:02:27;;;;;;;13.43;11.05;;;4.30;87.00;;;;;;5019618;29;20144;-68
2021/10/10 05:04:59;;;;;;;13.50;11.48;;;4.30;86.90;;;;;;5018666;29;20627;-68
2021/10/10 05:07:31;;;;;;;15.90;11.32;;;4.30;86.80;;;;;;5017691;29;20054;-68
2021/10/10 05:10:03;;;;;;;11.80;10.50;;;4.30;86.50;;;;;;5016941;29;20057;-68
2021/10/10 05:12:36;;;;;;;14.35;11.05;;;4.40;86.20;;;;;;5019095;29;20049;-69
2021/10/10 05:15:08;;;;;;;14.40;10.20;;;4.40;86.00;;;;;;5018094;29;20050;-69
2021/10/10 05:17:40;;;;;;;15.57;10.73;;;4.40;85.60;;;;;;5015514;29;20181;-69
2021/10/10 05:20:14;;;;;;;14.15;10.60;;;4.30;86.10;;;;;;5018213;29;20136;-69
2021/10/10 05:22:46;;;;;;;10.82;9.73;;;4.30;85.80;;;;;;5019810;29;20068;-69
2021/10/10 05:25:18;;;;;;;12.02;10.60;;;4.30;86.00;;;;;;5018109;29;20049;-69
2021/10/10 05:27:50;;;;;;;15.75;9.98;;;4.30;86.20;;;;;;5018557;29;20132;-69
2021/10/10 05:30:22;;;;;;;14.13;10.20;;;4.30;86.20;;;;;;5018901;29;20446;-68
2021/10/10 05:32:54;;;;;;;13.05;10.52;;;4.30;86.20;;;;;;5017806;29;20050;-69
2021/10/10 05:35:26;;;;;;;13.52;10.25;;;4.30;86.10;;;;;;5018533;29;20140;-68
2021/10/10 05:37:57;;;;;;;11.50;10.23;;;4.30;86.60;;;;;;5017149;29;20049;-71
2021/10/10 05:40:30;;;;;;;12.68;10.15;;;4.30;86.60;;;;;;5017076;29;20050;-68
2021/10/10 05:43:01;;;;;;;15.68;9.45;;;4.30;87.10;;;;;;5018006;29;20069;-68
2021/10/10 05:45:33;;;;;;;13.10;10.27;;;4.30;86.90;;;;;;5016839;29;20919;-68
2021/10/10 05:48:05;;;;;;;11.65;9.77;;;4.30;86.90;;;;;;5017309;29;20053;-69
2021/10/10 05:50:38;;;;;;;11.38;9.18;;;4.20;86.70;;;;;;5017415;29;20057;-68
2021/10/10 05:53:12;;;;;;;10.65;9.30;;;4.20;86.60;;;;;;5017337;29;20054;-68
2021/10/10 05:55:44;;;;;;;10.18;9.02;;;4.20;86.30;;;;;;5017967;29;20140;-66
2021/10/10 05:58:19;;;;;;;10.73;9.10;;;4.20;86.70;;;;;;5018389;29;20061;-68
2021/10/10 06:00:51;;;;;;;10.93;9.30;;;4.10;86.80;;;;;;5016899;29;20049;-68
2021/10/10 06:03:23;;;;;;;10.45;9.35;;;4.10;86.60;;;;;;5017469;29;20046;-68
2021/10/10 06:05:55;;;;;;;11.18;9.98;;;4.20;86.80;;;;;;5016270;29;20053;-67
2021/10/10 06:08:27;;;;;;;10.98;9.80;;;4.20;86.70;;;;;;5017311;29;20587;-68
2021/10/10 06:10:59;;;;;;;14.25;9.38;;;4.20;87.20;;;;;;5014775;29;20064;-68
2021/10/10 06:13:49;;;;;;;15.02;9.35;;;4.20;87.70;;;;;;5018525;29;20165;-69
2021/10/10 06:16:21;;;;;;;11.50;9.77;;;4.20;87.50;;;;;;5016152;29;20148;-68
2021/10/10 06:18:53;;;;;;;38.13;10.10;;;4.30;87.10;;;;;;5019281;29;20471;-69
2021/10/10 06:21:25;;;;;;;29.85;10.52;;;4.30;87.30;;;;;;5016743;29;20153;-69
2021/10/10 06:23:57;;;;;;;11.05;9.90;;;4.30;88.00;;;;;;5018489;29;20112;-68
2021/10/10 06:26:30;;;;;;;10.50;9.40;;;4.30;87.60;;;;;;5012574;29;20052;-68
2021/10/10 06:29:02;;;;;;;10.27;9.10;;;4.30;87.50;;;;;;5017914;29;20480;-68
2021/10/10 06:31:33;;;;;;;19.65;9.63;;;4.30;87.60;;;;;;5017693;29;20170;-68
2021/10/10 06:34:05;;;;;;;34.55;11.80;;;4.40;88.40;;;;;;5001238;29;20069;-69
2021/10/10 06:36:37;;;;;;;24.52;13.65;;;4.40;88.10;;;;;;5015029;29;20046;-67
2021/10/10 06:39:09;;;;;;;15.85;10.25;;;4.40;88.10;;;;;;5018288;29;20056;-68
2021/10/10 06:41:41;;;;;;;19.60;9.90;;;4.40;88.00;;;;;;5014628;29;20077;-69
2021/10/10 06:44:13;;;;;;;18.30;9.55;;;4.30;88.30;;;;;;5016290;29;20154;-68
2021/10/10 06:46:45;;;;;;;10.68;9.57;;;4.40;88.40;;;;;;5015456;29;20600;-68
2021/10/10 06:49:17;;;;;;;18.85;10.13;;;4.40;87.90;;;;;;5015846;29;20065;-68
2021/10/10 06:51:49;;;;;;;12.73;9.50;;;4.50;87.70;;;;;;5013712;29;20141;-68
2021/10/10 06:54:21;;;;;;;18.52;11.35;;;4.50;88.00;;;;;;5014589;29;20077;-68
2021/10/10 06:56:52;;;;;;;15.00;13.48;;;4.50;88.50;;;;;;5014244;29;20045;-68
2021/10/10 06:59:24;;;;;;;19.20;13.60;;;4.60;88.10;;;;;;5018132;29;20128;-67
2021/10/10 07:01:56;;;;;;;16.38;10.15;;;4.60;88.60;;;;;;5014336;29;20053;-68
2021/10/10 07:04:28;;;;;;;11.93;10.05;;;4.70;88.90;;;;;;5016849;29;20053;-69
2021/10/10 07:07:00;;;;;;;12.43;10.35;;;4.60;87.90;;;;;;5013319;29;20064;-68
2021/10/10 07:09:32;;;;;;;11.23;10.07;;;4.70;88.20;;;;;;5015522;29;20110;-69
2021/10/10 07:12:08;;;;;;;20.63;11.05;;;4.80;88.70;;;;;;5012326;29;20065;-68
2021/10/10 07:14:40;;;;;;;12.07;9.48;;;4.80;88.10;;;;;;5015419;29;20091;-68
2021/10/10 07:17:12;;;;;;;11.07;9.98;;;4.80;87.70;;;;;;5014888;29;20424;-67
2021/10/10 07:19:54;;;;;;;15.57;9.85;;;4.90;87.70;;;;;;5015822;29;20041;-68
2021/10/10 07:22:31;;;;;;;21.90;10.48;;;4.90;87.60;;;;;;5014708;29;20124;-69
2021/10/10 07:25:07;;;;;;;15.27;10.98;;;5.00;87.00;;;;;;5017301;29;20500;-68
2021/10/10 07:27:43;;;;;;;11.18;9.82;;;5.10;87.20;;;;;;5016617;29;20050;-68
2021/10/10 07:30:15;;;;;;;10.50;9.38;;;5.10;87.30;;;;;;5013887;29;20114;-69
2021/10/10 07:32:47;;;;;;;12.63;10.32;;;5.10;87.30;;;;;;5016565;29;20056;-68
2021/10/10 07:35:19;;;;;;;17.65;9.88;;;5.20;87.10;;;;;;5012980;29;20053;-69
2021/10/10 07:37:51;;;;;;;12.93;10.43;;;5.10;86.70;;;;;;5015910;29;20056;-68
2021/10/10 07:40:23;;;;;;;12.50;11.20;;;5.10;86.90;;;;;;5003021;29;20568;-70
2021/10/10 07:42:55;;;;;;;15.43;10.98;;;5.20;87.30;;;;;;5017993;29;20129;-69
2021/10/10 07:45:27;;;;;;;14.25;10.90;;;5.20;86.40;;;;;;5015008;29;21248;-68
2021/10/10 07:48:03;;;;;;;12.65;10.45;;;5.20;86.30;;;;;;4993623;29;20045;-69
2021/10/10 07:50:45;;;;;;;12.50;11.05;;;5.30;86.80;;;;;;5011735;29;20572;-68
2021/10/10 07:53:16;;;;;;;12.70;11.27;;;5.30;86.50;;;;;;5014822;29;20053;-68
2021/10/10 07:55:48;;;;;;;12.43;10.93;;;5.40;86.40;;;;;;4997650;29;20053;-69
2021/10/10 07:58:20;;;;;;;14.93;10.55;;;5.40;86.20;;;;;;5015217;29;20924;-68
2021/10/10 08:00:52;;;;;;;17.55;11.68;;;5.40;86.20;;;;;;5016163;29;20053;-67
2021/10/10 08:03:24;;;;;;;13.38;11.98;;;5.40;87.30;;;;;;5014754;29;20041;-67
2021/10/10 08:05:56;;;;;;;13.40;12.02;;;5.50;86.40;;;;;;5013647;29;20049;-68
2021/10/10 08:08:28;;;;;;;12.85;10.52;;;5.50;86.50;;;;;;5013701;29;20060;-67
2021/10/10 08:11:00;;;;;;;12.38;10.63;;;5.60;85.40;;;;;;5015728;29;20106;-68
2021/10/10 08:13:32;;;;;;;16.88;12.07;;;5.60;85.40;;;;;;5015591;29;20060;-69
2021/10/10 08:16:04;;;;;;;13.05;11.75;;;5.60;85.60;;;;;;5014605;29;20057;-68
2021/10/10 08:18:36;;;;;;;13.88;12.20;;;5.60;85.10;;;;;;5013735;29;20058;-69
2021/10/10 08:21:08;;;;;;;12.30;11.10;;;5.70;86.10;;;;;;5010630;29;20053;-70
2021/10/10 08:23:40;;;;;;;11.45;10.35;;;5.70;86.10;;;;;;5014660;29;20161;-71
2021/10/10 08:26:12;;;;;;;11.90;10.70;;;5.80;86.30;;;;;;5013443;29;20148;-69
2021/10/10 08:28:44;;;;;;;11.68;10.40;;;5.90;86.20;;;;;;5012651;29;20056;-70
2021/10/10 08:31:16;;;;;;;11.82;10.63;;;5.90;86.10;;;;;;5015960;29;20081;-68
2021/10/10 08:33:48;;;;;;;10.88;9.77;;;6.00;85.80;;;;;;5016864;29;20038;-67
2021/10/10 08:36:20;;;;;;;10.75;9.68;;;6.00;85.80;;;;;;5016054;29;20579;-68
2021/10/10 08:38:52;;;;;;;11.00;9.90;;;6.10;85.90;;;;;;5018218;29;20985;-69
2021/10/10 08:41:30;;;;;;;11.90;10.65;;;6.20;85.80;;;;;;5016953;29;20061;-68
2021/10/10 08:44:03;;;;;;;11.15;9.95;;;6.30;85.50;;;;;;5019620;29;20137;-69
2021/10/10 08:46:39;;;;;;;11.07;9.98;;;6.30;85.70;;;;;;5015851;29;20136;-68
2021/10/10 08:49:11;;;;;;;11.25;10.10;;;6.40;85.30;;;;;;5000800;29;20144;-68
2021/10/10 08:51:43;;;;;;;11.00;9.80;;;6.50;85.40;;;;;;5015359;29;20067;-68
2021/10/10 08:54:16;;;;;;;10.38;9.27;;;6.50;85.30;;;;;;5017119;29;20049;-70
2021/10/10 08:56:49;;;;;;;11.75;10.65;;;6.50;85.30;;;;;;5014714;29;20106;-69
2021/10/10 08:59:23;;;;;;;11.02;9.93;;;6.60;85.00;;;;;;5017499;29;20138;-69
2021/10/10 09:01:57;;;;;;;10.80;9.80;;;6.70;85.70;;;;;;4997505;29;20065;-69
2021/10/10 09:04:38;;;;;;;11.52;10.27;;;6.80;84.80;;;;;;5000356;29;20152;-66
2021/10/10 09:07:10;;;;;;;11.88;10.68;;;6.90;85.20;;;;;;5016137;29;20102;-66
2021/10/10 09:09:43;;;;;;;11.57;10.38;;;6.90;85.20;;;;;;5017572;29;20129;-66
2021/10/10 09:12:15;;;;;;;11.35;10.18;;;7.00;84.40;;;;;;4984684;29;20046;-67
2021/10/10 09:14:49;;;;;;;11.77;10.60;;;7.00;84.10;;;;;;4999934;29;20063;-68
2021/10/10 09:17:22;;;;;;;12.00;10.73;;;7.10;84.50;;;;;;5015678;29;20164;-68
2021/10/10 09:19:58;;;;;;;11.88;10.68;;;7.00;84.10;;;;;;5017576;29;20049;-67
2021/10/10 09:22:30;;;;;;;12.07;10.88;;;7.10;84.80;;;;;;5015044;29;20154;-67
2021/10/10 09:25:10;;;;;;;11.90;10.70;;;7.10;84.90;;;;;;5015578;29;20072;-70
2021/10/10 09:27:41;;;;;;;11.82;10.60;;;7.20;84.90;;;;;;5013141;29;20079;-67
2021/10/10 09:30:13;;;;;;;12.05;10.75;;;7.20;85.00;;;;;;5011157;29;20188;-68
2021/10/10 09:32:46;;;;;;;14.23;11.25;;;7.30;85.40;;;;;;5017207;29;20542;-67
2021/10/10 09:35:24;;;;;;;12.18;10.88;;;7.40;85.00;;;;;;5018670;29;20067;-66
2021/10/10 09:38:25;;;;;;;11.60;10.50;;;7.40;85.10;;;;;;5017347;29;20049;-67
2021/10/10 09:43:58;;;;;;;11.88;10.68;;;7.50;85.30;;;;;;5017374;29;20049;-68
2021/10/10 09:46:31;;;;;;;11.93;10.73;;;7.60;85.30;;;;;;5016048;29;20049;-68
2021/10/10 09:49:29;;;;;;;12.73;11.43;;;7.60;85.50;;;;;;5017521;29;20136;-68
2021/10/10 09:52:07;;;;;;;12.75;11.45;;;7.60;85.20;;;;;;5015035;29;20503;-68
2021/10/10 09:54:51;;;;;;;13.40;11.55;;;7.60;85.10;;;;;;5016326;29;20579;-67
2021/10/10 09:57:28;;;;;;;12.77;11.50;;;7.70;85.10;;;;;;5017047;29;20537;-68
2021/10/10 10:00:00;;;;;;;13.57;12.18;;;7.70;85.40;;;;;;5001836;29;20049;-69
2021/10/10 10:02:40;;;;;;;13.40;12.10;;;7.80;85.60;;;;;;4993475;29;20085;-71
2021/10/10 10:05:26;;;;;;;13.65;12.27;;;7.80;85.40;;;;;;5015172;29;20069;-68
2021/10/10 10:07:59;;;;;;;14.55;12.25;;;7.80;85.50;;;;;;5017279;29;20588;-70
2021/10/10 10:10:33;;;;;;;13.43;12.02;;;7.80;85.50;;;;;;5015111;29;20057;-68
2021/10/10 10:13:06;;;;;;;13.10;11.80;;;7.80;85.70;;;;;;5018243;29;20109;-68
2021/10/10 10:15:38;;;;;;;14.20;12.80;;;7.90;86.00;;;;;;5015077;29;20528;-68
2021/10/10 10:18:10;;;;;;;13.00;11.75;;;7.90;86.10;;;;;;5015848;29;20398;-68
2021/10/10 10:20:42;;;;;;;14.00;12.68;;;8.00;86.40;;;;;;5013851;29;20512;-68
2021/10/10 10:23:14;;;;;;;13.93;12.57;;;8.00;86.30;;;;;;5017178;29;20061;-67
2021/10/10 10:25:46;;;;;;;14.63;13.23;;;8.00;85.80;;;;;;4999523;29;20440;-68
2021/10/10 10:28:19;;;;;;;15.07;13.57;;;8.10;85.90;;;;;;5014276;29;20045;-68
2021/10/10 10:30:51;;;;;;;14.07;12.57;;;8.20;86.00;;;;;;5014964;29;20163;-68
2021/10/10 10:33:27;;;;;;;15.32;13.73;;;8.20;86.00;;;;;;5014296;29;20132;-68
2021/10/10 10:35:59;;;;;;;14.80;13.27;;;8.30;85.50;;;;;;5013755;29;20054;-68
2021/10/10 10:38:46;;;;;;;15.07;13.20;;;8.30;84.90;;;;;;5014131;29;20542;-69
2021/10/10 10:41:50;;;;;;;14.40;13.00;;;8.40;84.90;;;;;;5016073;29;20054;-69
2021/10/10 10:44:40;;;;;;;14.13;12.63;;;8.40;85.20;;;;;;5000324;29;20077;-68
2021/10/10 10:47:15;;;;;;;14.77;13.27;;;8.50;84.50;;;;;;5014804;29;20140;-68
2021/10/10 10:52:37;;;;;;;14.25;12.77;;;8.50;84.20;;;;;;5018056;29;20060;-71
2021/10/10 10:55:15;;;;;;;15.25;13.75;;;8.60;84.50;;;;;;5012586;29;20051;-67
2021/10/10 10:57:56;;;;;;;15.00;13.50;;;8.60;84.00;;;;;;5013186;29;20133;-69
2021/10/10 11:00:33;;;;;;;14.98;13.45;;;8.70;84.10;;;;;;5014252;29;20125;-68
2021/10/10 11:03:24;;;;;;;15.63;14.13;;;8.70;83.70;;;;;;5013992;29;20706;-68
2021/10/10 11:05:57;;;;;;;15.38;13.93;;;8.70;84.00;;;;;;5008660;29;20060;-67
2021/10/10 11:08:35;;;;;;;15.38;13.90;;;8.70;83.70;;;;;;5013931;29;20125;-67
2021/10/10 11:11:10;;;;;;;15.13;13.63;;;8.80;83.90;;;;;;5012414;29;20583;-67
2021/10/10 11:13:45;;;;;;;15.23;13.82;;;8.80;83.20;;;;;;4984135;29;20970;-67
2021/10/10 11:16:25;;;;;;;14.70;13.30;;;8.80;83.50;;;;;;5013716;29;20077;-69
2021/10/10 11:19:01;;;;;;;15.25;13.75;;;8.90;83.60;;;;;;5014843;29;20527;-67
2021/10/10 11:21:45;;;;;;;16.48;14.88;;;8.90;83.30;;;;;;5014074;29;20445;-67
2021/10/10 11:24:19;;;;;;;15.63;14.13;;;9.10;82.90;;;;;;5014848;29;20049;-67
2021/10/10 11:26:52;;;;;;;16.00;14.40;;;9.10;82.60;;;;;;5015987;29;20049;-66
2021/10/10 11:29:26;;;;;;;14.32;12.93;;;9.00;82.10;;;;;;5013170;29;20128;-68
2021/10/10 11:32:01;;;;;;;15.00;13.60;;;9.10;82.40;;;;;;5013289;29;20075;-67
2021/10/10 11:34:34;;;;;;;15.98;14.38;;;9.10;82.70;;;;;;5013922;29;20091;-67
2021/10/10 11:37:12;;;;;;;14.50;13.20;;;9.20;81.80;;;;;;5013908;29;20081;-67
2021/10/10 11:39:44;;;;;;;15.23;13.80;;;9.20;82.40;;;;;;5014686;29;20068;-67
2021/10/10 11:42:16;;;;;;;15.35;13.88;;;9.10;81.30;;;;;;5015285;29;20057;-67
2021/10/10 11:44:49;;;;;;;15.57;13.93;;;9.10;81.90;;;;;;5014807;29;21079;-68
2021/10/10 11:47:25;;;;;;;15.20;13.80;;;9.10;82.30;;;;;;5014310;29;20453;-70
2021/10/10 11:50:00;;;;;;;15.52;14.02;;;9.10;82.10;;;;;;5014448;29;20442;-67
2021/10/10 11:52:38;;;;;;;15.10;13.70;;;9.20;81.60;;;;;;5013775;29;20057;-67
2021/10/10 11:57:58;;;;;;;15.38;13.77;;;9.20;81.00;;;;;;5013530;29;20102;-67
2021/10/10 12:00:32;;;;;;;15.02;13.63;;;9.20;81.50;;;;;;5013444;29;20049;-67
2021/10/10 12:03:05;;;;;;;15.02;13.63;;;9.30;81.50;;;;;;5013776;29;20041;-68
2021/10/10 12:05:42;;;;;;;16.05;14.48;;;9.50;80.60;;;;;;4997730;29;21697;-68
2021/10/10 12:08:18;;;;;;;15.53;14.03;;;9.70;80.20;;;;;;5015921;29;20042;-70
2021/10/10 12:10:51;;;;;;;14.23;12.90;;;9.80;80.50;;;;;;5018422;29;20132;-68
2021/10/10 12:13:23;;;;;;;15.25;13.82;;;9.90;78.60;;;;;;5018592;29;20049;-68
2021/10/10 12:16:00;;;;;;;15.75;14.25;;;10.00;78.50;;;;;;5016071;29;20479;-67
2021/10/10 12:18:33;;;;;;;16.35;14.85;;;10.10;78.70;;;;;;5020376;29;20518;-68
2021/10/10 12:21:24;;;;;;;15.07;13.68;;;10.30;79.20;;;;;;5002612;29;20045;-68
2021/10/10 12:24:17;;;;;;;15.68;14.23;;;10.30;78.60;;;;;;5019547;29;20056;-67
2021/10/10 12:26:52;;;;;;;16.17;14.55;;;10.40;78.20;;;;;;5018233;29;20130;-68
2021/10/10 12:29:27;;;;;;;15.65;14.25;;;10.40;79.40;;;;;;5019576;29;20128;-70
2021/10/10 12:32:19;;;;;;;15.60;14.20;;;10.40;77.60;;;;;;5019400;29;20588;-69
2021/10/10 12:35:14;;;;;;;15.13;13.73;;;10.40;77.30;;;;;;5017926;29;20136;-68
2021/10/10 12:37:57;;;;;;;16.08;14.50;;;10.40;77.80;;;;;;5018057;29;20128;-67
2021/10/10 12:40:36;;;;;;;15.45;14.00;;;10.40;77.60;;;;;;5015402;29;20073;-69
2021/10/10 12:43:08;;;;;;;15.57;14.18;;;10.40;77.60;;;;;;5018385;29;20136;-68
2021/10/10 12:46:00;;;;;;;16.42;14.82;;;10.40;76.70;;;;;;5002161;29;20721;-68
2021/10/10 12:48:32;;;;;;;16.08;14.57;;;10.40;77.70;;;;;;5018659;29;20065;-68
2021/10/10 12:51:15;;;;;;;16.55;15.05;;;10.40;77.50;;;;;;5018520;29;20069;-68
2021/10/10 12:53:47;;;;;;;15.90;14.40;;;10.40;76.80;;;;;;5019080;29;20393;-68
2021/10/10 12:56:20;;;;;;;17.17;15.60;;;10.40;77.10;;;;;;5016992;29;20053;-72
2021/10/10 12:58:57;;;;;;;17.17;15.15;;;10.40;77.70;;;;;;5019051;29;20049;-69
2021/10/10 13:01:33;;;;;;;16.33;14.75;;;10.40;77.20;;;;;;5018608;29;20073;-69
2021/10/10 13:04:19;;;;;;;16.10;14.45;;;10.30;76.40;;;;;;5019026;29;20748;-69
2021/10/10 13:06:51;;;;;;;16.13;14.60;;;10.30;76.10;;;;;;5016266;29;20454;-69
2021/10/10 13:09:28;;;;;;;15.80;14.40;;;10.30;76.30;;;;;;5018049;29;20121;-69
2021/10/10 13:12:02;;;;;;;15.50;14.02;;;10.40;75.40;;;;;;5018451;29;20045;-69
2021/10/10 13:14:34;;;;;;;15.07;13.57;;;10.40;75.30;;;;;;5019004;29;20068;-69
2021/10/10 13:17:06;;;;;;;15.27;13.88;;;10.40;75.60;;;;;;5017818;29;20076;-69
2021/10/10 13:19:38;;;;;;;16.00;14.20;;;10.40;75.10;;;;;;5017379;29;20707;-68
2021/10/10 13:22:10;;;;;;;15.45;13.93;;;10.50;75.10;;;;;;5017830;29;20056;-68